KIMT/IMT METAR and TAF weather

Enter ICAO airport designator
Station Type Date Time Source
KIMT METAR 2020/08/14 01:54 UTC NOAA

KIMT 140154Z AUTO 14003KT 10SM BKN095 22/17 A3011 RMK AO2 RAB11E20 SLP194 P0000 T02170167


Station Type Date Time Source
KIMT Decoded METAR 2020/08/14 01:54 UTC NOAA

IRON MOUNTAIN FORD AIRPORT, MI, United States (KIMT) 45-49N 88-07W 349M
Aug 13, 2020 - 09:54 PM EDT / 2020.08.14 0154 UTC
Wind: from the SE (140 degrees) at 3 MPH (3 KT):0
Visibility: 10 mile(s):0
Sky conditions: mostly cloudy
Precipitation last hour: A trace
Temperature: 71.1 F (21.7 C)
Dew Point: 62.1 F (16.7 C)
Relative Humidity: 73%
Pressure (altimeter): 30.11 in. Hg (1019 hPa)
ob: KIMT 140154Z AUTO 14003KT 10SM BKN095 22/17 A3011 RMK AO2 RAB11E20 SLP194 P0000 T02170167
cycle: 2

Station Type Date Time Source
KIMT TAF UTC NOAA

Error!

Example: see airport list